Elmo, Montana
Current Conditions -  °F | °C
As of 6:55 AM on Wednesday 28 Jan 2015 (Local Time) from KGPI Reporting Station
Haze Haze  
Wind Chill: 13°   Ceiling: Unl
Heat Index: 13°   Visibility: 5mi
Dew Point: 10°   Wind: 3mph
Humidity: 88%   Direction: 10°N
Pressure: 30.2"   Gusts: NA
Location:  47.83°N, 114.35°W
Report Text: KGPI 281355Z AUTO 01003KT 5SM BR CLR M11/M12 A3020 RMK AO2 SLP271 T11061122
Loading
Personal Weather Stations






























Interactive Weather Map New forecast layout! Learn more

10-Day Weather Forecast

Advertisements
Track Severe Weather on mobile